Time;durP1;ratioP1;P1;durP2;ratioP2;P2;SDS_P1;SDS_P2;PMS_P1;PMS_P2;Temp;Humidity;BMP_temperature;BMP_pressure;BME280_temperature;BME280_humidity;BME280_pressure;Samples;Min_cycle;Max_cycle;Signal;HPM_P1;HPM_P2
2022/11/11 00:01:45;;;;;;;21.80;10.50;;;;;;;5.67;100.00;100913.95;103894;1334;22531;-33
2022/11/11 00:04:12;;;;;;;21.20;11.20;;;;;;;5.61;100.00;100916.77;103719;1341;22502;-36
2022/11/11 00:06:37;;;;;;;10.80;7.20;;;;;;;5.56;100.00;100920.41;103903;1340;22161;-34
2022/11/11 00:09:03;;;;;;;39.70;13.60;;;;;;;5.51;100.00;100919.56;103844;1341;22078;-33
2022/11/11 00:11:28;;;;;;;18.00;7.60;;;;;;;5.46;100.00;100919.48;103946;1333;22227;-33
2022/11/11 00:13:54;;;;;;;26.30;12.60;;;;;;;5.41;100.00;100924.45;103974;1341;22239;-33
2022/11/11 00:16:20;;;;;;;13.50;8.80;;;;;;;5.39;100.00;100924.09;103799;1339;22217;-33
2022/11/11 00:26:14;;;;;;;21.50;11.30;;;;;;;5.34;100.00;100937.66;104014;1340;22215;-33
2022/11/11 00:28:40;;;;;;;21.30;11.90;;;;;;;5.32;100.00;100935.84;103983;1334;22194;-33
2022/11/11 00:31:07;;;;;;;20.30;11.10;;;;;;;5.30;100.00;100934.23;103990;1341;22568;-33
2022/11/11 00:33:33;;;;;;;6.50;5.70;;;;;;;5.24;100.00;100933.02;103919;1334;22512;-36
2022/11/11 00:35:59;;;;;;;25.30;11.80;;;;;;;5.21;100.00;100934.44;103955;1333;22503;-33
2022/11/11 00:40:54;;;;;;;23.20;11.40;;;;;;;5.19;100.00;100927.49;103986;1340;22600;-36
2022/11/11 00:43:19;;;;;;;17.80;9.70;;;;;;;5.22;100.00;100921.23;103113;1339;22559;-36
2022/11/11 00:45:45;;;;;;;29.80;12.60;;;;;;;5.22;100.00;100917.70;103963;1333;22510;-36
2022/11/11 00:53:11;;;;;;;14.50;8.50;;;;;;;5.30;100.00;100913.48;103976;1340;22189;-36
2022/11/11 00:55:37;;;;;;;20.50;14.10;;;;;;;5.34;100.00;100914.05;103985;1333;22158;-33
2022/11/11 00:58:03;;;;;;;18.80;8.50;;;;;;;5.38;100.00;100912.29;103932;1341;22193;-36
2022/11/11 01:00:29;;;;;;;15.30;9.30;;;;;;;5.40;100.00;100908.41;103950;1341;22529;-36
2022/11/11 01:02:56;;;;;;;29.40;10.30;;;;;;;5.34;100.00;100906.94;103984;1341;22195;-36
2022/11/11 01:05:22;;;;;;;22.60;11.50;;;;;;;5.35;100.00;100909.17;103876;1341;22607;-32
2022/11/11 01:07:49;;;;;;;13.90;8.60;;;;;;;5.31;100.00;100916.59;104011;1339;22422;-33
2022/11/11 01:10:36;;;;;;;16.90;7.80;;;;;;;5.31;100.00;100923.91;104014;1342;22234;-38
2022/11/11 01:15:32;;;;;;;20.70;10.80;;;;;;;5.48;100.00;100930.64;103708;1340;22189;-33
2022/11/11 01:17:58;;;;;;;19.00;11.10;;;;;;;5.52;100.00;100929.64;104006;1333;22156;-34
2022/11/11 01:20:23;;;;;;;23.40;9.70;;;;;;;5.53;100.00;100932.18;103837;1341;22542;-33
2022/11/11 01:22:49;;;;;;;14.00;8.70;;;;;;;5.56;100.00;100932.09;103876;1341;22714;-36
2022/11/11 01:25:15;;;;;;;16.70;9.50;;;;;;;5.60;100.00;100935.89;103982;1341;22109;-33
2022/11/11 01:27:40;;;;;;;21.70;10.10;;;;;;;5.63;100.00;100944.16;104015;1333;22170;-33
2022/11/11 01:30:06;;;;;;;13.10;7.60;;;;;;;5.59;100.00;100941.23;103978;1341;22498;-34
2022/11/11 01:32:32;;;;;;;16.80;8.00;;;;;;;5.58;100.00;100937.41;103953;1341;22126;-33
2022/11/11 01:34:57;;;;;;;10.60;6.60;;;;;;;5.56;100.00;100936.93;103917;1333;22763;-37
2022/11/11 01:37:23;;;;;;;16.80;7.90;;;;;;;5.52;100.00;100934.23;103844;1341;22295;-36
2022/11/11 01:39:49;;;;;;;12.60;8.00;;;;;;;5.51;100.00;100933.20;104023;1341;22396;-37
2022/11/11 01:42:14;;;;;;;16.70;9.20;;;;;;;5.44;100.00;100933.98;103439;1342;22528;-36
2022/11/11 01:44:43;;;;;;;16.30;7.50;;;;;;;5.40;100.00;100933.60;103823;1341;22119;-37
2022/11/11 01:47:09;;;;;;;20.40;10.20;;;;;;;5.40;100.00;100932.91;103976;1332;22285;-33
2022/11/11 01:49:41;;;;;;;28.80;10.00;;;;;;;5.34;100.00;100928.08;103665;1340;22567;-37
2022/11/11 01:52:11;;;;;;;13.30;8.10;;;;;;;5.25;100.00;100926.70;103990;1336;22046;-33
2022/11/11 01:54:37;;;;;;;20.60;9.20;;;;;;;5.21;100.00;100927.90;103968;1339;22531;-36
2022/11/11 01:57:05;;;;;;;18.10;10.40;;;;;;;5.16;100.00;100935.95;103975;1335;22174;-33
2022/11/11 01:59:32;;;;;;;23.50;10.10;;;;;;;5.07;100.00;100934.85;103994;1334;22179;-36
2022/11/11 02:01:58;;;;;;;14.60;6.40;;;;;;;5.00;100.00;100933.80;103990;1336;22362;-36
2022/11/11 02:06:54;;;;;;;18.60;9.40;;;;;;;4.93;100.00;100929.06;103879;1341;22201;-33
2022/11/11 02:09:20;;;;;;;11.20;6.30;;;;;;;4.88;100.00;100936.22;103988;1341;22615;-37
2022/11/11 02:16:44;;;;;;;12.70;8.80;;;;;;;4.81;100.00;100944.39;103986;1341;22726;-37
2022/11/11 02:19:10;;;;;;;19.10;10.70;;;;;;;4.87;100.00;100936.09;104009;1333;22203;-36
2022/11/11 02:21:38;;;;;;;23.50;10.90;;;;;;;4.97;100.00;100928.57;103454;1332;22515;-34
2022/11/11 02:24:04;;;;;;;16.60;10.30;;;;;;;5.00;100.00;100918.55;103980;1327;22188;-33
2022/11/11 02:26:31;;;;;;;10.90;7.90;;;;;;;4.98;100.00;100909.48;103990;1341;22217;-34
2022/11/11 02:28:56;;;;;;;21.30;9.70;;;;;;;4.93;100.00;100903.84;103998;1341;22074;-33
2022/11/11 02:31:27;;;;;;;23.40;10.80;;;;;;;4.88;100.00;100895.60;103952;1333;22532;-37
2022/11/11 02:33:52;;;;;;;15.00;9.10;;;;;;;4.74;100.00;100897.41;103993;1340;22365;-34
2022/11/11 02:36:18;;;;;;;15.90;10.90;;;;;;;4.67;100.00;100901.16;103969;1333;22498;-33
2022/11/11 02:38:43;;;;;;;16.00;9.80;;;;;;;4.62;100.00;100904.04;103856;1333;22525;-37
2022/11/11 02:43:38;;;;;;;17.50;10.10;;;;;;;4.52;100.00;100912.30;103977;1340;22051;-36
2022/11/11 02:46:05;;;;;;;18.30;8.40;;;;;;;4.46;100.00;100915.94;103968;1341;22402;-37
2022/11/11 02:48:31;;;;;;;30.20;11.60;;;;;;;4.42;100.00;100928.27;103996;1341;22514;-33
2022/11/11 02:50:57;;;;;;;20.30;11.90;;;;;;;4.56;100.00;100932.89;104011;1341;22020;-33
2022/11/11 02:53:22;;;;;;;22.70;12.20;;;;;;;4.65;100.00;100928.27;103996;1334;22587;-36
2022/11/11 02:55:48;;;;;;;18.00;11.00;;;;;;;4.76;100.00;100932.05;104010;1341;22134;-37
2022/11/11 02:58:14;;;;;;;21.20;12.70;;;;;;;4.66;100.00;100940.25;104014;1333;22207;-36
2022/11/11 03:00:40;;;;;;;17.80;10.40;;;;;;;4.65;100.00;100943.83;103972;1333;22277;-35
2022/11/11 03:03:05;;;;;;;28.70;13.40;;;;;;;4.59;100.00;100949.66;103971;1334;22062;-37
2022/11/11 03:05:32;;;;;;;24.50;11.20;;;;;;;4.67;100.00;100956.52;103991;1326;22276;-34
2022/11/11 03:07:58;;;;;;;16.50;9.40;;;;;;;4.67;100.00;100960.55;103513;1327;22208;-33
2022/11/11 03:10:24;;;;;;;15.90;11.00;;;;;;;4.73;100.00;100964.23;103918;1340;22268;-33
2022/11/11 03:12:49;;;;;;;26.90;13.10;;;;;;;4.70;100.00;100965.49;103970;1341;22085;-33
2022/11/11 03:15:15;;;;;;;28.40;14.40;;;;;;;4.77;100.00;100969.19;103954;1333;22529;-36
2022/11/11 03:17:40;;;;;;;19.30;10.70;;;;;;;4.82;100.00;100966.36;103995;1341;22265;-33
2022/11/11 03:22:39;;;;;;;41.70;11.90;;;;;;;4.75;100.00;100958.19;103978;1341;22271;-33
2022/11/11 03:27:34;;;;;;;14.20;9.80;;;;;;;4.65;100.00;100951.72;103969;1333;22509;-37
2022/11/11 03:30:00;;;;;;;26.20;11.40;;;;;;;4.58;100.00;100949.38;104047;1334;22494;-37
2022/11/11 03:32:25;;;;;;;19.80;8.90;;;;;;;4.54;100.00;100955.90;103922;1341;22336;-33
2022/11/11 03:34:51;;;;;;;20.20;11.00;;;;;;;4.59;100.00;100955.52;103975;1341;22614;-33
2022/11/11 03:39:46;;;;;;;27.90;14.50;;;;;;;4.62;100.00;100962.19;103051;1341;22543;-33
2022/11/11 03:42:11;;;;;;;19.10;11.40;;;;;;;4.54;100.00;100956.09;104005;1333;22017;-36
2022/11/11 03:44:37;;;;;;;18.50;10.10;;;;;;;4.56;100.00;100956.26;104023;1341;22533;-33
2022/11/11 03:47:02;;;;;;;15.10;10.50;;;;;;;4.61;100.00;100957.11;103987;1334;22047;-37
2022/11/11 03:49:28;;;;;;;15.30;9.30;;;;;;;4.51;100.00;100965.90;103995;1340;22466;-33
2022/11/11 03:51:53;;;;;;;31.60;13.10;;;;;;;4.60;100.00;100974.58;103652;1341;22176;-35
2022/11/11 03:54:19;;;;;;;24.30;14.50;;;;;;;4.66;100.00;100975.02;104018;1341;22313;-33
2022/11/11 03:56:44;;;;;;;9.00;7.10;;;;;;;4.65;100.00;100974.89;104014;1335;22347;-34
2022/11/11 03:59:10;;;;;;;29.30;13.80;;;;;;;4.68;100.00;100979.32;103947;1329;22527;-33
2022/11/11 04:11:38;;;;;;;20.40;11.40;;;;;;;4.75;100.00;100966.73;103992;1341;22179;-33
2022/11/11 04:16:35;;;;;;;24.90;12.30;;;;;;;4.63;100.00;100963.52;103980;1341;22133;-33
2022/11/11 04:23:59;;;;;;;24.10;11.90;;;;;;;4.72;100.00;100981.11;103951;1334;22190;-33
2022/11/11 04:26:25;;;;;;;31.20;11.40;;;;;;;4.77;100.00;100984.45;103898;1341;22161;-33
2022/11/11 04:31:20;;;;;;;18.00;9.10;;;;;;;4.62;100.00;100981.52;103325;1341;22523;-33
2022/11/11 04:33:45;;;;;;;22.30;13.00;;;;;;;4.74;100.00;100984.35;104033;1334;22147;-33
2022/11/11 04:36:11;;;;;;;24.20;13.90;;;;;;;4.74;100.00;100986.33;103984;1341;22152;-36
2022/11/11 04:41:07;;;;;;;10.80;8.80;;;;;;;4.67;100.00;100996.09;103989;1340;22070;-33
2022/11/11 04:45:26;;;;;;;30.30;14.80;;;;;;;4.72;100.00;101001.52;103952;1336;22179;-36
2022/11/11 04:46:18;;;;;;;16.50;8.90;;;;;;;4.76;100.00;101009.95;104002;1334;22259;-32
2022/11/11 04:48:44;;;;;;;22.10;11.80;;;;;;;4.76;100.00;101012.42;104015;1341;22173;-36
2022/11/11 04:51:09;;;;;;;17.60;10.60;;;;;;;4.71;100.00;101018.29;103953;1341;22099;-33
2022/11/11 04:53:36;;;;;;;14.20;8.10;;;;;;;4.73;100.00;101026.88;103899;1341;24363;-35
2022/11/11 04:58:32;;;;;;;13.70;8.60;;;;;;;4.87;100.00;101027.36;103771;1333;22505;-33
2022/11/11 05:00:58;;;;;;;20.30;11.60;;;;;;;4.89;100.00;101019.92;103912;1334;22200;-33
2022/11/11 05:03:23;;;;;;;16.40;10.40;;;;;;;4.88;100.00;101013.63;103884;1341;22507;-37
2022/11/11 05:10:49;;;;;;;14.60;10.40;;;;;;;4.82;100.00;101010.02;103874;1341;22384;-33
2022/11/11 05:23:16;;;;;;;15.80;9.10;;;;;;;4.71;100.00;101000.02;103901;1340;22331;-33
2022/11/11 05:25:42;;;;;;;22.70;12.50;;;;;;;4.67;100.00;100996.20;103954;1341;22528;-34
2022/11/11 05:28:07;;;;;;;20.60;9.60;;;;;;;4.65;100.00;100998.17;103941;1340;22117;-36
2022/11/11 05:30:34;;;;;;;22.80;11.30;;;;;;;4.64;100.00;101000.34;103953;1334;22171;-36
2022/11/11 05:33:00;;;;;;;18.80;11.30;;;;;;;4.68;100.00;100992.96;104001;1340;22208;-33
2022/11/11 05:35:25;;;;;;;28.90;13.40;;;;;;;4.64;100.00;100992.00;103968;1333;22135;-36
2022/11/11 05:40:20;;;;;;;18.70;11.00;;;;;;;4.64;100.00;100995.72;104023;1341;22427;-33
2022/11/11 05:42:45;;;;;;;23.80;14.60;;;;;;;4.60;100.00;100992.50;103852;1341;22102;-33
2022/11/11 05:45:11;;;;;;;17.60;9.80;;;;;;;4.60;100.00;100993.60;103967;1341;22026;-36
2022/11/11 05:47:37;;;;;;;24.10;13.80;;;;;;;4.56;100.00;100994.73;103657;1342;22521;-36
2022/11/11 05:50:03;;;;;;;24.60;13.30;;;;;;;4.55;100.00;100997.50;103519;1332;22475;-33
2022/11/11 05:52:29;;;;;;;22.10;12.10;;;;;;;4.54;100.00;101001.30;103891;1338;22523;-36
2022/11/11 05:54:54;;;;;;;11.60;7.90;;;;;;;4.53;100.00;101005.86;103894;1341;22081;-33
2022/11/11 05:57:20;;;;;;;20.80;11.40;;;;;;;4.53;100.00;101010.61;103879;1340;22555;-44
2022/11/11 05:59:47;;;;;;;18.80;10.60;;;;;;;4.54;100.00;101007.58;103956;1341;22376;-36
2022/11/11 06:02:12;;;;;;;25.60;13.70;;;;;;;4.54;100.00;100999.24;103817;1341;22618;-32
2022/11/11 06:04:38;;;;;;;18.80;11.70;;;;;;;4.54;100.00;100995.30;103942;1340;22424;-33
2022/11/11 06:07:04;;;;;;;21.30;11.70;;;;;;;4.51;100.00;100997.36;103884;1334;22605;-35
2022/11/11 06:09:29;;;;;;;16.80;9.80;;;;;;;4.50;100.00;101001.52;103573;1327;24299;-33
2022/11/11 06:11:55;;;;;;;16.80;9.30;;;;;;;4.54;100.00;100999.77;103945;1341;22036;-33
2022/11/11 06:14:20;;;;;;;25.40;12.40;;;;;;;4.53;100.00;101002.67;103952;1335;22291;-36
2022/11/11 06:16:46;;;;;;;20.30;11.30;;;;;;;4.57;100.00;101003.74;104003;1339;22295;-36
2022/11/11 06:19:11;;;;;;;24.90;11.80;;;;;;;4.58;100.00;101002.46;103860;1340;22597;-33
2022/11/11 06:24:06;;;;;;;27.40;12.90;;;;;;;4.62;100.00;101006.59;103636;1341;22521;-36
2022/11/11 06:26:32;;;;;;;21.70;12.40;;;;;;;4.65;100.00;101009.30;103958;1341;22168;-36
2022/11/11 06:28:57;;;;;;;27.80;13.50;;;;;;;4.68;100.00;101014.06;103943;1340;22181;-36
2022/11/11 06:31:25;;;;;;;19.80;9.90;;;;;;;4.74;100.00;101019.31;103872;1340;22098;-36
2022/11/11 06:33:50;;;;;;;23.20;13.40;;;;;;;4.82;100.00;101025.58;104007;1341;22143;-33
2022/11/11 06:36:19;;;;;;;13.80;8.80;;;;;;;4.91;100.00;101023.64;103964;1341;22237;-33
2022/11/11 06:38:45;;;;;;;19.80;10.10;;;;;;;4.92;100.00;101027.13;104023;1330;22047;-33
2022/11/11 06:41:11;;;;;;;18.80;10.60;;;;;;;5.00;100.00;101032.90;103982;1341;22442;-33
2022/11/11 06:43:39;;;;;;;19.90;10.70;;;;;;;5.15;100.00;101032.96;103903;1334;22055;-36
2022/11/11 06:46:05;;;;;;;16.90;9.80;;;;;;;5.16;100.00;101029.99;103923;1341;22727;-36
2022/11/11 06:48:30;;;;;;;20.20;7.90;;;;;;;5.20;100.00;101033.42;103968;1337;22143;-33
2022/11/11 06:51:01;;;;;;;18.80;11.70;;;;;;;5.34;100.00;101033.01;103696;1341;22504;-33
2022/11/11 06:53:28;;;;;;;20.80;9.80;;;;;;;5.32;100.00;101027.35;103934;1341;22261;-34
2022/11/11 06:55:53;;;;;;;23.20;10.60;;;;;;;5.35;100.00;101030.46;103889;1341;22177;-33
2022/11/11 06:58:19;;;;;;;23.50;11.80;;;;;;;5.39;100.00;101022.86;103944;1340;22568;-33
2022/11/11 07:00:46;;;;;;;15.20;9.60;;;;;;;5.47;100.00;101013.52;103951;1341;24271;-36
2022/11/11 07:03:13;;;;;;;20.60;10.80;;;;;;;5.53;100.00;101010.92;103993;1333;22206;-36
2022/11/11 07:05:39;;;;;;;23.10;13.20;;;;;;;5.60;100.00;101010.34;103840;1342;22711;-33
2022/11/11 07:08:06;;;;;;;38.70;10.30;;;;;;;5.66;100.00;101005.92;103925;1333;22302;-34
2022/11/11 07:10:34;;;;;;;15.50;10.70;;;;;;;5.92;100.00;100993.52;103872;1327;22208;-37
2022/11/11 07:13:00;;;;;;;15.40;9.00;;;;;;;5.83;100.00;100980.89;104017;1337;22154;-34
2022/11/11 07:15:25;;;;;;;19.70;11.40;;;;;;;5.88;100.00;100970.37;103839;1334;22523;-34
2022/11/11 07:17:51;;;;;;;23.80;11.50;;;;;;;5.91;100.00;100963.00;103444;1342;23101;-34
2022/11/11 07:20:17;;;;;;;16.70;9.30;;;;;;;5.99;100.00;100958.09;103850;1340;22539;-34
2022/11/11 07:22:42;;;;;;;35.90;11.50;;;;;;;6.14;100.00;100947.41;103195;1341;22586;-37
2022/11/11 07:25:08;;;;;;;23.00;10.70;;;;;;;6.24;100.00;100946.48;103439;1341;22310;-35
2022/11/11 07:27:37;;;;;;;10.00;4.70;;;;;;;6.48;100.00;100935.95;103484;1341;22506;-37
2022/11/11 07:30:03;;;;;;;28.50;10.90;;;;;;;6.67;100.00;100911.84;103717;1341;22498;-38
2022/11/11 07:32:29;;;;;;;13.30;8.10;;;;;;;6.74;100.00;100887.73;103711;1340;22482;-33
2022/11/11 07:34:54;;;;;;;13.30;8.30;;;;;;;6.95;100.00;100866.09;103815;1340;24414;-36
2022/11/11 07:37:20;;;;;;;19.90;10.60;;;;;;;6.89;100.00;100854.56;103336;1334;22409;-37
2022/11/11 07:39:46;;;;;;;13.30;7.70;;;;;;;7.00;100.00;100850.15;103777;1341;24399;-34
2022/11/11 07:42:11;;;;;;;17.30;9.10;;;;;;;7.10;100.00;100851.21;103827;1340;22516;-37
2022/11/11 07:44:37;;;;;;;17.40;7.50;;;;;;;7.19;100.00;100838.68;103685;1341;22244;-37
2022/11/11 07:47:03;;;;;;;12.30;8.60;;;;;;;7.11;100.00;100842.28;103705;1342;22583;-33
2022/11/11 07:49:28;;;;;;;11.90;8.20;;;;;;;7.25;100.00;100844.55;103970;1341;22163;-36
2022/11/11 07:51:54;;;;;;;24.00;8.50;;;;;;;7.26;100.00;100852.45;103847;1342;22267;-35
2022/11/11 07:54:20;;;;;;;4.10;3.00;;;;;;;7.30;100.00;100855.52;103747;1343;22561;-33
2022/11/11 07:56:46;;;;;;;21.80;7.20;;;;;;;7.29;100.00;100861.82;103812;1342;22524;-33
2022/11/11 07:59:11;;;;;;;13.50;7.60;;;;;;;7.11;100.00;100870.57;103835;1330;22067;-34
2022/11/11 08:01:37;;;;;;;10.30;6.20;;;;;;;7.09;100.00;100880.05;103850;1342;22515;-35
2022/11/11 08:04:03;;;;;;;14.10;8.00;;;;;;;7.14;100.00;100884.05;103882;1337;22509;-34
2022/11/11 08:06:28;;;;;;;10.80;6.60;;;;;;;7.29;100.00;100877.17;103983;1336;22194;-37
2022/11/11 08:08:54;;;;;;;15.40;9.50;;;;;;;7.41;100.00;100874.79;103927;1335;22193;-34
2022/11/11 08:13:39;;;;;;;16.00;8.00;;;;;;;7.66;100.00;100870.77;103780;1332;22065;-34
2022/11/11 08:14:06;;;;;;;20.40;9.60;;;;;;;7.84;100.00;100870.48;103570;1345;22217;-38
2022/11/11 08:16:32;;;;;;;12.20;9.10;;;;;;;7.77;100.00;100878.97;103892;1341;22515;-37
2022/11/11 08:18:58;;;;;;;17.00;11.40;;;;;;;7.83;100.00;100881.23;103892;1328;22461;-35
2022/11/11 08:21:23;;;;;;;13.30;8.80;;;;;;;8.09;100.00;100881.50;103900;1340;24488;-35
2022/11/11 08:23:50;;;;;;;18.00;8.60;;;;;;;8.22;100.00;100879.38;103738;1342;22197;-37
2022/11/11 08:26:16;;;;;;;9.20;5.70;;;;;;;8.36;100.00;100890.83;103681;1347;22534;-35
2022/11/11 08:28:41;;;;;;;19.30;6.10;;;;;;;8.63;100.00;100891.65;103692;1346;22596;-34
2022/11/11 08:31:08;;;;;;;3.60;3.40;;;;;;;8.78;100.00;100884.95;103871;1332;22479;-38
2022/11/11 08:33:34;;;;;;;14.30;7.10;;;;;;;8.92;100.00;100878.06;103871;1340;22072;-38
2022/11/11 08:36:01;;;;;;;9.00;5.00;;;;;;;9.08;100.00;100871.83;103575;1342;22282;-38
2022/11/11 08:38:26;;;;;;;7.90;5.00;;;;;;;9.25;100.00;100872.86;103361;1341;22158;-38
2022/11/11 08:40:52;;;;;;;9.00;4.80;;;;;;;9.53;100.00;100872.79;103679;1343;22208;-37
2022/11/11 08:43:18;;;;;;;13.90;7.00;;;;;;;9.54;100.00;100866.54;103926;1341;22532;-38
2022/11/11 08:45:44;;;;;;;14.00;5.00;;;;;;;9.53;100.00;100873.47;103626;1334;24303;-35
2022/11/11 08:48:10;;;;;;;9.00;4.30;;;;;;;9.63;100.00;100872.63;103855;1342;22531;-38
2022/11/11 08:50:37;;;;;;;11.90;5.00;;;;;;;9.53;100.00;100881.69;103872;1333;22344;-35
2022/11/11 08:53:02;;;;;;;16.20;6.80;;;;;;;9.80;100.00;100881.00;103767;1336;22456;-36
2022/11/11 08:55:28;;;;;;;11.30;4.70;;;;;;;10.07;100.00;100878.33;103658;1339;22738;-34
2022/11/11 08:57:58;;;;;;;8.40;6.10;;;;;;;10.18;100.00;100881.94;103863;1342;22254;-35
2022/11/11 09:00:23;;;;;;;9.70;5.50;;;;;;;10.53;100.00;100881.66;103724;1332;22488;-38
2022/11/11 09:02:49;;;;;;;22.00;7.00;;;;;;;10.74;98.18;100881.13;103747;1339;23035;-35
2022/11/11 09:05:15;;;;;;;5.70;4.00;;;;;;;10.75;97.15;100888.36;103827;1334;22487;-35
2022/11/11 09:07:41;;;;;;;7.00;5.30;;;;;;;10.88;96.56;100888.95;103873;1330;22517;-38
2022/11/11 09:10:07;;;;;;;9.10;3.80;;;;;;;10.63;97.13;100895.33;103621;1337;22449;-38
2022/11/11 09:12:34;;;;;;;11.00;5.00;;;;;;;10.81;96.53;100889.02;103744;1330;24419;-38
2022/11/11 09:15:00;;;;;;;10.70;5.00;;;;;;;10.50;98.59;100893.33;103839;1330;22506;-38
2022/11/11 09:17:26;;;;;;;10.00;4.90;;;;;;;10.79;96.62;100888.66;103121;1342;22501;-35
2022/11/11 09:19:52;;;;;;;22.30;4.70;;;;;;;10.68;96.49;100890.70;103466;1341;22524;-38
2022/11/11 09:22:18;;;;;;;17.60;4.50;;;;;;;10.67;97.78;100883.80;103599;1318;22542;-35
2022/11/11 09:24:43;;;;;;;17.30;4.00;;;;;;;10.87;95.60;100884.05;103637;1334;22529;-35
2022/11/11 09:27:09;;;;;;;5.80;4.30;;;;;;;10.54;98.23;100883.42;103857;1342;22528;-35
2022/11/11 09:29:35;;;;;;;11.60;5.40;;;;;;;10.69;98.03;100889.01;103527;1340;22725;-36
2022/11/11 09:32:00;;;;;;;18.30;5.00;;;;;;;10.92;94.76;100887.26;103916;1340;22220;-35
2022/11/11 09:34:26;;;;;;;11.80;4.10;;;;;;;10.76;94.08;100882.90;103928;1346;22064;-35
2022/11/11 09:36:52;;;;;;;9.20;4.40;;;;;;;10.62;95.69;100884.57;103907;1337;22531;-35
2022/11/11 09:39:17;;;;;;;10.30;4.20;;;;;;;10.72;95.33;100885.46;103413;1321;22518;-38
2022/11/11 09:41:44;;;;;;;9.50;4.50;;;;;;;10.68;94.22;100885.50;102323;1341;22517;-37
2022/11/11 09:44:20;;;;;;;7.80;2.40;;;;;;;10.59;96.40;100886.04;103623;1340;22070;-34
2022/11/11 09:46:49;;;;;;;11.30;4.70;;;;;;;10.70;95.02;100875.04;103759;1342;22061;-38
2022/11/11 09:49:19;;;;;;;5.30;3.80;;;;;;;10.61;96.02;100871.50;103646;1332;22521;-35
2022/11/11 09:51:52;;;;;;;9.00;4.00;;;;;;;10.71;96.27;100871.05;103617;1341;22280;-35
2022/11/11 09:54:21;;;;;;;12.40;4.10;;;;;;;10.73;95.07;100870.71;103863;1346;22547;-35
2022/11/11 09:56:46;;;;;;;4.70;3.20;;;;;;;10.57;96.06;100873.55;103813;1347;22074;-35
2022/11/11 09:59:17;;;;;;;8.90;4.60;;;;;;;10.43;97.85;100874.17;103874;1341;22259;-35
2022/11/11 10:01:48;;;;;;;4.60;3.40;;;;;;;10.71;96.30;100875.85;103847;1333;22197;-34
2022/11/11 10:04:17;;;;;;;5.30;3.00;;;;;;;10.67;97.72;100868.94;103521;1339;22533;-38
2022/11/11 10:06:43;;;;;;;6.50;4.10;;;;;;;10.87;96.33;100870.80;103794;1340;22515;-35
2022/11/11 10:09:15;;;;;;;8.50;4.20;;;;;;;10.83;97.49;100867.63;103833;1339;22150;-35
2022/11/11 10:11:46;;;;;;;5.90;3.80;;;;;;;11.00;97.14;100871.35;103430;1342;22593;-38
2022/11/11 10:14:14;;;;;;;10.90;4.60;;;;;;;11.10;97.02;100866.78;103615;1342;22252;-35
2022/11/11 10:16:43;;;;;;;18.70;4.00;;;;;;;11.24;95.90;100868.48;103691;1339;22516;-35
2022/11/11 10:19:12;;;;;;;7.20;4.00;;;;;;;11.35;93.38;100867.34;103447;1342;22560;-38
2022/11/11 10:21:43;;;;;;;8.90;3.30;;;;;;;11.32;92.81;100866.66;103175;1326;22523;-38
2022/11/11 10:24:12;;;;;;;18.60;3.20;;;;;;;11.41;92.15;100864.14;103772;1345;22161;-38
2022/11/11 10:26:39;;;;;;;5.00;3.30;;;;;;;11.57;91.13;100859.11;103602;1340;22490;-35
2022/11/11 10:29:10;;;;;;;15.70;4.70;;;;;;;11.62;90.88;100852.84;103682;1340;22228;-35
2022/11/11 10:31:35;;;;;;;5.80;3.40;;;;;;;11.95;89.01;100853.77;103823;1334;22165;-38
2022/11/11 10:34:04;;;;;;;6.40;3.60;;;;;;;11.95;88.88;100855.05;103839;1341;22582;-35
2022/11/11 10:36:30;;;;;;;6.80;4.00;;;;;;;12.12;88.78;100850.92;103116;1337;22645;-34
2022/11/11 10:38:58;;;;;;;5.60;3.20;;;;;;;12.43;89.09;100852.84;103316;1341;22484;-36
2022/11/11 10:41:31;;;;;;;8.60;3.70;;;;;;;12.67;87.39;100852.72;103817;1342;22538;-33
2022/11/11 10:43:56;;;;;;;17.00;3.70;;;;;;;12.78;86.90;100851.98;103885;1340;22321;-34
2022/11/11 10:46:24;;;;;;;6.70;3.60;;;;;;;12.89;83.97;100848.71;103196;1341;22531;-35
2022/11/11 10:49:11;;;;;;;4.10;3.20;;;;;;;12.87;83.98;100850.14;103585;1341;22583;-38
2022/11/11 10:51:42;;;;;;;5.80;2.60;;;;;;;12.60;84.63;100852.17;103713;1341;22561;-39
2022/11/11 10:54:10;;;;;;;8.30;3.40;;;;;;;12.67;85.24;100854.10;103655;1341;22526;-38
2022/11/11 10:56:42;;;;;;;5.50;3.70;;;;;;;12.82;82.51;100847.84;103848;1336;22710;-38
2022/11/11 10:59:14;;;;;;;12.00;3.70;;;;;;;12.78;82.49;100847.94;103825;1341;24264;-38
2022/11/11 11:01:51;;;;;;;6.50;4.10;;;;;;;12.65;82.43;100843.40;103936;1341;22524;-38
2022/11/11 11:04:32;;;;;;;9.80;5.40;;;;;;;12.51;82.59;100841.94;103671;1341;25232;-38
2022/11/11 11:07:01;;;;;;;12.00;5.40;;;;;;;12.22;83.94;100834.09;103831;1341;22514;-38
2022/11/11 11:09:37;;;;;;;9.30;4.60;;;;;;;12.24;84.45;100837.42;103263;1341;24307;-35
2022/11/11 11:12:12;;;;;;;7.50;3.80;;;;;;;12.10;86.52;100833.05;103760;1341;22698;-38
2022/11/11 11:14:44;;;;;;;4.40;4.00;;;;;;;12.14;86.44;100835.13;103564;1342;21989;-38
2022/11/11 11:17:19;;;;;;;7.00;3.50;;;;;;;12.00;86.99;100834.52;103747;1341;22925;-38
2022/11/11 11:19:44;;;;;;;5.40;3.00;;;;;;;12.20;85.96;100837.30;103826;1342;22532;-35
2022/11/11 11:22:10;;;;;;;3.60;2.50;;;;;;;11.96;87.49;100842.20;103875;1341;22203;-38
2022/11/11 11:24:36;;;;;;;8.50;2.80;;;;;;;11.98;87.75;100845.36;103871;1341;22538;-38
2022/11/11 11:27:05;;;;;;;6.40;3.10;;;;;;;11.86;88.41;100843.80;103924;1341;22604;-35
2022/11/11 11:29:34;;;;;;;3.90;2.70;;;;;;;11.94;88.61;100842.02;103873;1341;22151;-35
2022/11/11 11:32:20;;;;;;;6.60;3.30;;;;;;;11.98;87.78;100844.61;103942;1341;22584;-35
2022/11/11 11:34:52;;;;;;;5.00;3.70;;;;;;;11.78;87.84;100844.30;103925;1334;22536;-35
2022/11/11 11:37:19;;;;;;;4.30;2.70;;;;;;;11.69;89.16;100841.67;103796;1341;22509;-35
2022/11/11 11:39:44;;;;;;;8.10;3.10;;;;;;;11.92;88.71;100835.99;103881;1334;22530;-38
2022/11/11 11:42:17;;;;;;;6.10;3.80;;;;;;;11.90;88.94;100834.61;103843;1334;22051;-35
2022/11/11 11:44:42;;;;;;;6.60;3.00;;;;;;;12.01;88.32;100839.22;103528;1341;22531;-35
2022/11/11 11:47:17;;;;;;;15.80;4.50;;;;;;;11.99;87.21;100838.59;103753;1341;24275;-36
2022/11/11 11:49:51;;;;;;;5.10;4.20;;;;;;;11.83;88.85;100833.04;103949;1341;22075;-33
2022/11/11 11:52:22;;;;;;;6.30;3.70;;;;;;;11.82;89.90;100834.55;103743;1342;22142;-34
2022/11/11 11:54:51;;;;;;;5.90;2.80;;;;;;;11.94;89.69;100835.89;103725;1334;22511;-36
2022/11/11 11:57:23;;;;;;;6.30;3.30;;;;;;;11.92;90.00;100834.34;103605;1333;24206;-36
2022/11/11 11:59:55;;;;;;;11.00;5.00;;;;;;;11.82;90.23;100832.75;103685;1341;22013;-34
2022/11/11 12:02:31;;;;;;;6.90;2.80;;;;;;;11.76;91.10;100828.39;103922;1341;22515;-36
2022/11/11 12:05:04;;;;;;;10.20;4.00;;;;;;;11.85;91.79;100833.13;103710;1342;22210;-34
2022/11/11 12:07:36;;;;;;;;;;;;;;;12.07;90.38;100827.46;103570;1341;320006;-33
2022/11/11 12:10:05;;;;;;;10.50;3.70;;;;;;;11.97;89.22;100819.47;103856;1326;22537;-33
2022/11/11 12:12:34;;;;;;;7.60;3.50;;;;;;;12.10;88.52;100811.31;103943;1341;22562;-34
2022/11/11 12:15:04;;;;;;;5.40;3.00;;;;;;;12.11;87.69;100815.67;103598;1333;22522;-36
2022/11/11 12:17:33;;;;;;;10.70;3.50;;;;;;;11.82;90.05;100811.36;103902;1333;22591;-35
2022/11/11 12:20:18;;;;;;;5.10;3.10;;;;;;;11.91;90.11;100811.96;103979;1333;22227;-34
2022/11/11 12:22:54;;;;;;;15.00;2.60;;;;;;;11.86;89.89;100805.36;103947;1333;22584;-36
2022/11/11 12:25:45;;;;;;;6.70;3.60;;;;;;;11.81;91.33;100798.90;103787;1341;22133;-37
2022/11/11 12:28:14;;;;;;;5.70;2.60;;;;;;;11.92;90.57;100797.94;103694;1336;22510;-34
2022/11/11 12:30:47;;;;;;;11.70;2.00;;;;;;;12.02;88.20;100798.73;103956;1333;22544;-36